sensor_id;sensor_type;location;lat;lon;timestamp;pressure;altitude;pressure_sealevel;temperature;humidity
73103;BME280;61294;65.988;29.172;2022-10-23T00:01:17;96473.28;;;-1.00;93.12
73103;BME280;61294;65.988;29.172;2022-10-23T00:03:44;96457.69;;;-1.11;92.82
73103;BME280;61294;65.988;29.172;2022-10-23T00:06:13;96472.34;;;-1.09;93.23
73103;BME280;61294;65.988;29.172;2022-10-23T00:08:40;96458.56;;;-1.15;93.65
73103;BME280;61294;65.988;29.172;2022-10-23T00:11:08;96431.72;;;-1.34;94.05
73103;BME280;61294;65.988;29.172;2022-10-23T00:13:34;96461.97;;;-1.23;93.68
73103;BME280;61294;65.988;29.172;2022-10-23T00:16:03;96469.66;;;-1.24;93.73
73103;BME280;61294;65.988;29.172;2022-10-23T00:18:29;96467.97;;;-1.27;94.23
73103;BME280;61294;65.988;29.172;2022-10-23T00:21:05;96440.28;;;-1.42;94.59
73103;BME280;61294;65.988;29.172;2022-10-23T00:23:31;96429.91;;;-1.52;94.71
73103;BME280;61294;65.988;29.172;2022-10-23T00:26:06;96432.50;;;-1.52;94.64
73103;BME280;61294;65.988;29.172;2022-10-23T00:28:33;96446.22;;;-1.58;94.36
73103;BME280;61294;65.988;29.172;2022-10-23T00:31:04;96466.94;;;-1.46;95.16
73103;BME280;61294;65.988;29.172;2022-10-23T00:33:33;96431.50;;;-1.67;95.27
73103;BME280;61294;65.988;29.172;2022-10-23T00:35:59;96450.44;;;-1.66;94.72
73103;BME280;61294;65.988;29.172;2022-10-23T00:38:25;96463.38;;;-1.62;95.21
73103;BME280;61294;65.988;29.172;2022-10-23T00:40:51;96435.78;;;-1.74;95.41
73103;BME280;61294;65.988;29.172;2022-10-23T00:43:20;96470.34;;;-1.53;95.37
73103;BME280;61294;65.988;29.172;2022-10-23T00:45:46;96453.09;;;-1.56;95.38
73103;BME280;61294;65.988;29.172;2022-10-23T00:48:12;96451.38;;;-1.58;95.29
73103;BME280;61294;65.988;29.172;2022-10-23T00:50:42;96448.75;;;-1.61;95.59
73103;BME280;61294;65.988;29.172;2022-10-23T00:53:11;96438.34;;;-1.74;95.67
73103;BME280;61294;65.988;29.172;2022-10-23T00:55:38;96452.19;;;-1.65;95.99
73103;BME280;61294;65.988;29.172;2022-10-23T00:58:10;96446.13;;;-1.67;96.39
73103;BME280;61294;65.988;29.172;2022-10-23T01:00:49;96444.50;;;-1.53;96.15
73103;BME280;61294;65.988;29.172;2022-10-23T01:03:20;96440.31;;;-1.39;95.67
73103;BME280;61294;65.988;29.172;2022-10-23T01:05:56;96453.28;;;-1.34;95.38
73103;BME280;61294;65.988;29.172;2022-10-23T01:11:37;96461.84;;;-1.40;95.59
73103;BME280;61294;65.988;29.172;2022-10-23T01:14:36;96449.69;;;-1.50;94.91
73103;BME280;61294;65.988;29.172;2022-10-23T01:17:16;96465.28;;;-1.39;95.04
73103;BME280;61294;65.988;29.172;2022-10-23T01:28:17;96427.94;;;-1.81;95.10
73103;BME280;61294;65.988;29.172;2022-10-23T01:30:45;96443.41;;;-1.83;95.34
73103;BME280;61294;65.988;29.172;2022-10-23T01:33:16;96428.75;;;-1.90;95.15
73103;BME280;61294;65.988;29.172;2022-10-23T01:35:51;96458.09;;;-1.79;95.42
73103;BME280;61294;65.988;29.172;2022-10-23T01:41:18;96463.22;;;-1.85;95.14
73103;BME280;61294;65.988;29.172;2022-10-23T01:46:30;96450.97;;;-2.06;95.46
73103;BME280;61294;65.988;29.172;2022-10-23T01:49:03;96467.31;;;-2.02;94.71
73103;BME280;61294;65.988;29.172;2022-10-23T01:51:35;96444.81;;;-2.19;94.88
73103;BME280;61294;65.988;29.172;2022-10-23T01:54:06;96434.38;;;-2.30;94.94
73103;BME280;61294;65.988;29.172;2022-10-23T01:56:35;96461.97;;;-2.22;94.56
73103;BME280;61294;65.988;29.172;2022-10-23T01:59:07;96447.25;;;-2.34;94.96
73103;BME280;61294;65.988;29.172;2022-10-23T02:01:36;96436.91;;;-2.37;94.99
73103;BME280;61294;65.988;29.172;2022-10-23T02:04:10;96472.28;;;-2.22;94.39
73103;BME280;61294;65.988;29.172;2022-10-23T02:06:41;96438.53;;;-2.44;94.31
73103;BME280;61294;65.988;29.172;2022-10-23T02:09:08;96447.19;;;-2.40;94.54
73103;BME280;61294;65.988;29.172;2022-10-23T02:11:38;96436.72;;;-2.54;94.44
73103;BME280;61294;65.988;29.172;2022-10-23T02:14:17;96447.94;;;-2.51;94.95
73103;BME280;61294;65.988;29.172;2022-10-23T02:16:52;96449.63;;;-2.53;94.45
73103;BME280;61294;65.988;29.172;2022-10-23T02:19:38;96435.91;;;-2.52;94.59
73103;BME280;61294;65.988;29.172;2022-10-23T02:22:20;96439.31;;;-2.54;95.15
73103;BME280;61294;65.988;29.172;2022-10-23T02:24:55;96441.88;;;-2.56;94.67
73103;BME280;61294;65.988;29.172;2022-10-23T02:27:49;96433.19;;;-2.63;94.97
73103;BME280;61294;65.988;29.172;2022-10-23T02:30:18;96408.97;;;-2.79;94.88
73103;BME280;61294;65.988;29.172;2022-10-23T02:32:52;96415.88;;;-2.74;94.88
73103;BME280;61294;65.988;29.172;2022-10-23T02:35:21;96436.59;;;-2.65;94.73
73103;BME280;61294;65.988;29.172;2022-10-23T02:37:58;96415.03;;;-2.75;94.75
73103;BME280;61294;65.988;29.172;2022-10-23T02:40:45;96398.59;;;-2.83;95.06
73103;BME280;61294;65.988;29.172;2022-10-23T02:43:22;96425.38;;;-2.70;95.10
73103;BME280;61294;65.988;29.172;2022-10-23T02:46:10;96426.22;;;-2.71;95.09
73103;BME280;61294;65.988;29.172;2022-10-23T02:48:47;96400.16;;;-2.99;94.96
73103;BME280;61294;65.988;29.172;2022-10-23T02:51:36;96428.66;;;-2.82;94.93
73103;BME280;61294;65.988;29.172;2022-10-23T02:54:19;96446.78;;;-2.76;95.40
73103;BME280;61294;65.988;29.172;2022-10-23T02:56:59;96428.72;;;-2.81;94.66
73103;BME280;61294;65.988;29.172;2022-10-23T02:59:37;96413.19;;;-2.84;93.96
73103;BME280;61294;65.988;29.172;2022-10-23T03:02:32;96381.13;;;-3.10;94.28
73103;BME280;61294;65.988;29.172;2022-10-23T03:05:05;96407.03;;;-2.95;93.56
73103;BME280;61294;65.988;29.172;2022-10-23T03:07:36;96419.19;;;-2.86;93.69
73103;BME280;61294;65.988;29.172;2022-10-23T03:10:04;96398.41;;;-3.00;92.81
73103;BME280;61294;65.988;29.172;2022-10-23T03:12:30;96441.69;;;-2.70;92.35
73103;BME280;61294;65.988;29.172;2022-10-23T03:14:55;96439.88;;;-2.79;92.53
73103;BME280;61294;65.988;29.172;2022-10-23T03:17:21;96432.94;;;-2.86;92.23
73103;BME280;61294;65.988;29.172;2022-10-23T03:19:47;96425.13;;;-2.92;92.14
73103;BME280;61294;65.988;29.172;2022-10-23T03:22:13;96396.63;;;-3.06;92.50
73103;BME280;61294;65.988;29.172;2022-10-23T03:24:39;96431.16;;;-2.90;92.30
73103;BME280;61294;65.988;29.172;2022-10-23T03:27:04;96385.28;;;-3.20;92.38
73103;BME280;61294;65.988;29.172;2022-10-23T03:29:30;96389.56;;;-3.19;92.59
73103;BME280;61294;65.988;29.172;2022-10-23T03:31:56;96404.22;;;-3.15;92.03
73103;BME280;61294;65.988;29.172;2022-10-23T03:34:22;96388.72;;;-3.20;91.99
73103;BME280;61294;65.988;29.172;2022-10-23T03:36:48;96422.41;;;-3.04;91.74
73103;BME280;61294;65.988;29.172;2022-10-23T03:39:16;96417.16;;;-3.12;91.71
73103;BME280;61294;65.988;29.172;2022-10-23T03:41:42;96383.59;;;-3.17;91.72
73103;BME280;61294;65.988;29.172;2022-10-23T03:44:08;96411.25;;;-3.03;91.11
73103;BME280;61294;65.988;29.172;2022-10-23T03:46:33;96392.22;;;-3.15;91.44
73103;BME280;61294;65.988;29.172;2022-10-23T03:48:59;96405.16;;;-3.10;91.08
73103;BME280;61294;65.988;29.172;2022-10-23T03:51:26;96411.16;;;-3.08;90.96
73103;BME280;61294;65.988;29.172;2022-10-23T03:53:51;96373.06;;;-3.35;90.70
73103;BME280;61294;65.988;29.172;2022-10-23T03:56:17;96377.38;;;-3.33;90.11
73103;BME280;61294;65.988;29.172;2022-10-23T03:58:43;96392.91;;;-3.26;90.18
73103;BME280;61294;65.988;29.172;2022-10-23T04:01:09;96385.16;;;-3.30;90.50
73103;BME280;61294;65.988;29.172;2022-10-23T04:03:35;96366.94;;;-3.43;90.51
73103;BME280;61294;65.988;29.172;2022-10-23T04:06:00;96421.34;;;-3.19;90.36
73103;BME280;61294;65.988;29.172;2022-10-23T04:08:26;96409.31;;;-3.20;89.87
73103;BME280;61294;65.988;29.172;2022-10-23T04:10:53;96385.16;;;-3.30;88.27
73103;BME280;61294;65.988;29.172;2022-10-23T04:13:19;96418.81;;;-3.14;88.89
73103;BME280;61294;65.988;29.172;2022-10-23T04:15:50;96392.22;;;-3.15;87.59
73103;BME280;61294;65.988;29.172;2022-10-23T04:18:16;96394.81;;;-3.13;87.90
73103;BME280;61294;65.988;29.172;2022-10-23T04:20:43;96412.06;;;-3.07;87.59
73103;BME280;61294;65.988;29.172;2022-10-23T04:23:09;96393.06;;;-3.14;86.97
73103;BME280;61294;65.988;29.172;2022-10-23T04:25:34;96405.16;;;-3.10;87.45
73103;BME280;61294;65.988;29.172;2022-10-23T04:28:00;96411.97;;;-3.14;87.60
73103;BME280;61294;65.988;29.172;2022-10-23T04:30:26;96411.88;;;-3.20;87.47
73103;BME280;61294;65.988;29.172;2022-10-23T04:32:52;96406.81;;;-3.14;87.33
73103;BME280;61294;65.988;29.172;2022-10-23T04:35:18;96386.84;;;-3.33;87.05
73103;BME280;61294;65.988;29.172;2022-10-23T04:37:44;96410.25;;;-3.15;87.11
73103;BME280;61294;65.988;29.172;2022-10-23T04:40:10;96371.38;;;-3.33;86.50
73103;BME280;61294;65.988;29.172;2022-10-23T04:42:36;96405.94;;;-3.16;86.63
73103;BME280;61294;65.988;29.172;2022-10-23T04:45:03;96401.63;;;-3.17;86.49
73103;BME280;61294;65.988;29.172;2022-10-23T04:47:29;96414.47;;;-3.20;86.48
73103;BME280;61294;65.988;29.172;2022-10-23T04:49:55;96384.28;;;-3.30;86.57
73103;BME280;61294;65.988;29.172;2022-10-23T04:52:21;96402.38;;;-3.24;86.72
73103;BME280;61294;65.988;29.172;2022-10-23T04:54:47;96371.25;;;-3.42;86.83
73103;BME280;61294;65.988;29.172;2022-10-23T04:57:13;96370.47;;;-3.37;86.35
73103;BME280;61294;65.988;29.172;2022-10-23T04:59:39;96366.94;;;-3.43;86.41
73103;BME280;61294;65.988;29.172;2022-10-23T05:02:05;96404.06;;;-3.27;86.40
73103;BME280;61294;65.988;29.172;2022-10-23T05:04:31;96385.72;;;-3.51;86.73
73103;BME280;61294;65.988;29.172;2022-10-23T05:06:57;96382.44;;;-3.40;86.14
73103;BME280;61294;65.988;29.172;2022-10-23T05:09:23;96370.28;;;-3.51;86.52
73103;BME280;61294;65.988;29.172;2022-10-23T05:11:49;96405.63;;;-3.40;86.96
73103;BME280;61294;65.988;29.172;2022-10-23T05:14:15;96375.38;;;-3.55;86.59
73103;BME280;61294;65.988;29.172;2022-10-23T05:19:17;96409.09;;;-3.35;86.69
73103;BME280;61294;65.988;29.172;2022-10-23T05:21:44;96395.34;;;-3.37;86.64
73103;BME280;61294;65.988;29.172;2022-10-23T05:24:11;96411.69;;;-3.34;86.22
73103;BME280;61294;65.988;29.172;2022-10-23T05:26:37;96396.25;;;-3.34;85.87
73103;BME280;61294;65.988;29.172;2022-10-23T05:29:03;96400.59;;;-3.30;86.00
73103;BME280;61294;65.988;29.172;2022-10-23T05:31:29;96404.91;;;-3.30;86.38
73103;BME280;61294;65.988;29.172;2022-10-23T05:33:55;96398.91;;;-3.29;85.84
73103;BME280;61294;65.988;29.172;2022-10-23T05:36:22;96390.38;;;-3.25;85.75
73103;BME280;61294;65.988;29.172;2022-10-23T05:38:49;96393.69;;;-3.32;85.72
73103;BME280;61294;65.988;29.172;2022-10-23T05:41:15;96391.19;;;-3.29;85.70
73103;BME280;61294;65.988;29.172;2022-10-23T05:43:42;96398.09;;;-3.25;85.98
73103;BME280;61294;65.988;29.172;2022-10-23T05:46:08;96381.69;;;-3.33;85.70
73103;BME280;61294;65.988;29.172;2022-10-23T05:48:34;96398.06;;;-3.26;85.40
73103;BME280;61294;65.988;29.172;2022-10-23T05:51:04;96394.63;;;-3.27;85.69
73103;BME280;61294;65.988;29.172;2022-10-23T05:53:30;96410.09;;;-3.25;85.63
73103;BME280;61294;65.988;29.172;2022-10-23T05:56:02;96409.19;;;-3.31;85.73
73103;BME280;61294;65.988;29.172;2022-10-23T05:58:29;96413.44;;;-3.33;85.93
73103;BME280;61294;65.988;29.172;2022-10-23T06:00:55;96404.03;;;-3.31;85.47
73103;BME280;61294;65.988;29.172;2022-10-23T06:03:21;96420.53;;;-3.18;84.96
73103;BME280;61294;65.988;29.172;2022-10-23T06:05:50;96420.56;;;-3.13;84.17
73103;BME280;61294;65.988;29.172;2022-10-23T06:08:17;96392.09;;;-3.24;84.54
73103;BME280;61294;65.988;29.172;2022-10-23T06:10:43;96421.38;;;-3.16;84.87
73103;BME280;61294;65.988;29.172;2022-10-23T06:13:09;96412.75;;;-3.19;84.79
73103;BME280;61294;65.988;29.172;2022-10-23T06:15:35;96424.91;;;-3.10;84.56
73103;BME280;61294;65.988;29.172;2022-10-23T06:18:03;96424.91;;;-3.09;84.65
73103;BME280;61294;65.988;29.172;2022-10-23T06:20:29;96424.91;;;-3.10;84.65
73103;BME280;61294;65.988;29.172;2022-10-23T06:22:55;96419.81;;;-3.06;84.36
73103;BME280;61294;65.988;29.172;2022-10-23T06:25:21;96412.84;;;-3.12;83.99
73103;BME280;61294;65.988;29.172;2022-10-23T06:27:47;96380.75;;;-3.37;84.23
73103;BME280;61294;65.988;29.172;2022-10-23T06:30:12;96422.25;;;-3.14;84.37
73103;BME280;61294;65.988;29.172;2022-10-23T06:32:38;96375.75;;;-3.29;84.44
73103;BME280;61294;65.988;29.172;2022-10-23T06:35:04;96384.38;;;-3.22;84.11
73103;BME280;61294;65.988;29.172;2022-10-23T06:37:32;96389.56;;;-3.21;84.40
73103;BME280;61294;65.988;29.172;2022-10-23T06:39:59;96392.25;;;-3.12;83.90
73103;BME280;61294;65.988;29.172;2022-10-23T06:42:25;96423.34;;;-2.98;83.69
73103;BME280;61294;65.988;29.172;2022-10-23T06:44:50;96431.19;;;-2.85;82.67
73103;BME280;61294;65.988;29.172;2022-10-23T06:47:16;96423.50;;;-2.84;82.68
73103;BME280;61294;65.988;29.172;2022-10-23T06:49:42;96423.44;;;-2.88;82.61
73103;BME280;61294;65.988;29.172;2022-10-23T06:52:08;96428.59;;;-2.88;82.89
73103;BME280;61294;65.988;29.172;2022-10-23T06:54:34;96433.88;;;-2.79;82.75
73103;BME280;61294;65.988;29.172;2022-10-23T06:56:59;96400.97;;;-3.00;82.82
73103;BME280;61294;65.988;29.172;2022-10-23T06:59:25;96382.03;;;-3.04;82.72
73103;BME280;61294;65.988;29.172;2022-10-23T07:01:51;96408.00;;;-2.87;82.42
73103;BME280;61294;65.988;29.172;2022-10-23T07:04:17;96430.41;;;-2.80;82.75
73103;BME280;61294;65.988;29.172;2022-10-23T07:06:43;96401.97;;;-2.90;82.44
73103;BME280;61294;65.988;29.172;2022-10-23T07:09:09;96429.59;;;-2.75;82.60
73103;BME280;61294;65.988;29.172;2022-10-23T07:11:36;96431.41;;;-2.68;82.38
73103;BME280;61294;65.988;29.172;2022-10-23T07:14:02;96426.38;;;-2.59;81.69
73103;BME280;61294;65.988;29.172;2022-10-23T07:16:27;96419.50;;;-2.57;81.88
73103;BME280;61294;65.988;29.172;2022-10-23T07:18:56;96416.06;;;-2.59;81.30
73103;BME280;61294;65.988;29.172;2022-10-23T07:21:27;96423.03;;;-2.50;81.68
73103;BME280;61294;65.988;29.172;2022-10-23T07:23:53;96429.84;;;-2.54;81.62
73103;BME280;61294;65.988;29.172;2022-10-23T07:26:18;96392.84;;;-2.62;80.59
73103;BME280;61294;65.988;29.172;2022-10-23T07:28:46;96390.28;;;-2.59;81.42
73103;BME280;61294;65.988;29.172;2022-10-23T07:31:12;96426.53;;;-2.45;81.14
73103;BME280;61294;65.988;29.172;2022-10-23T07:33:38;96427.44;;;-2.38;81.12
73103;BME280;61294;65.988;29.172;2022-10-23T07:36:08;96432.66;;;-2.32;80.37
73103;BME280;61294;65.988;29.172;2022-10-23T07:38:34;96405.06;;;-2.41;80.36
73103;BME280;61294;65.988;29.172;2022-10-23T07:41:00;96426.72;;;-2.25;80.39
73103;BME280;61294;65.988;29.172;2022-10-23T07:43:26;96431.09;;;-2.18;79.73
73103;BME280;61294;65.988;29.172;2022-10-23T07:45:53;96432.78;;;-2.20;80.19
73103;BME280;61294;65.988;29.172;2022-10-23T07:48:19;96426.09;;;-1.98;78.88
73103;BME280;61294;65.988;29.172;2022-10-23T07:50:49;96435.56;;;-1.97;79.35
73103;BME280;61294;65.988;29.172;2022-10-23T07:53:23;96428.72;;;-1.92;78.33
73103;BME280;61294;65.988;29.172;2022-10-23T07:55:57;96433.91;;;-1.90;78.40
73103;BME280;61294;65.988;29.172;2022-10-23T07:58:23;96426.16;;;-1.92;78.90
73103;BME280;61294;65.988;29.172;2022-10-23T08:00:56;96446.00;;;-1.83;78.28
73103;BME280;61294;65.988;29.172;2022-10-23T08:03:28;96418.00;;;-1.24;76.22
73103;BME280;61294;65.988;29.172;2022-10-23T08:05:54;96412.81;;;-1.32;75.39
73103;BME280;61294;65.988;29.172;2022-10-23T08:08:21;96432.78;;;-1.01;74.07
73103;BME280;61294;65.988;29.172;2022-10-23T08:10:49;96402.47;;;-1.32;75.67
73103;BME280;61294;65.988;29.172;2022-10-23T08:13:16;96448.19;;;-1.18;75.18
73103;BME280;61294;65.988;29.172;2022-10-23T08:15:46;96447.63;;;-0.56;73.11
73103;BME280;61294;65.988;29.172;2022-10-23T08:18:12;96446.00;;;0.99;70.65
73103;BME280;61294;65.988;29.172;2022-10-23T08:20:40;96411.22;;;3.49;62.32
73103;BME280;61294;65.988;29.172;2022-10-23T08:23:06;96424.13;;;6.45;51.30
73103;BME280;61294;65.988;29.172;2022-10-23T08:25:32;96430.19;;;8.37;47.49
73103;BME280;61294;65.988;29.172;2022-10-23T08:27:58;96411.28;;;9.08;44.33
73103;BME280;61294;65.988;29.172;2022-10-23T08:30:25;96420.34;;;5.38;49.56
73103;BME280;61294;65.988;29.172;2022-10-23T08:32:51;96426.38;;;2.21;57.60
73103;BME280;61294;65.988;29.172;2022-10-23T08:35:17;96464.16;;;0.89;62.99
73103;BME280;61294;65.988;29.172;2022-10-23T08:37:43;96440.88;;;0.08;65.70
73103;BME280;61294;65.988;29.172;2022-10-23T08:40:16;96461.59;;;-0.01;66.99
73103;BME280;61294;65.988;29.172;2022-10-23T08:42:46;96469.34;;;0.01;67.72
73103;BME280;61294;65.988;29.172;2022-10-23T08:45:34;96427.94;;;0.22;67.53
73103;BME280;61294;65.988;29.172;2022-10-23T08:48:12;96477.09;;;1.06;65.53
73103;BME280;61294;65.988;29.172;2022-10-23T08:50:48;96461.59;;;0.48;66.24
73103;BME280;61294;65.988;29.172;2022-10-23T08:53:44;96471.69;;;1.69;64.40
73103;BME280;61294;65.988;29.172;2022-10-23T08:56:24;96448.72;;;7.73;51.80
73103;BME280;61294;65.988;29.172;2022-10-23T09:02:11;96447.75;;;7.11;46.44
73103;BME280;61294;65.988;29.172;2022-10-23T09:04:40;96465.28;;;7.09;47.27
73103;BME280;61294;65.988;29.172;2022-10-23T09:10:17;96480.22;;;7.04;47.00
73103;BME280;61294;65.988;29.172;2022-10-23T09:12:45;96465.09;;;9.21;43.75
73103;BME280;61294;65.988;29.172;2022-10-23T09:15:14;96461.56;;;5.21;48.79
73103;BME280;61294;65.988;29.172;2022-10-23T09:17:44;96483.47;;;3.25;53.66
73103;BME280;61294;65.988;29.172;2022-10-23T09:22:53;96464.16;;;0.84;61.68
73103;BME280;61294;65.988;29.172;2022-10-23T09:25:24;96487.50;;;0.65;62.75
73103;BME280;61294;65.988;29.172;2022-10-23T09:27:52;96477.84;;;1.45;61.26
73103;BME280;61294;65.988;29.172;2022-10-23T09:30:37;96491.81;;;0.83;62.44
73103;BME280;61294;65.988;29.172;2022-10-23T09:33:25;96486.88;;;2.38;59.94
73103;BME280;61294;65.988;29.172;2022-10-23T09:35:54;96469.91;;;7.32;49.86
73103;BME280;61294;65.988;29.172;2022-10-23T09:38:31;96485.28;;;7.12;46.43
73103;BME280;61294;65.988;29.172;2022-10-23T09:41:21;96464.72;;;6.62;46.26
73103;BME280;61294;65.988;29.172;2022-10-23T09:46:37;96484.56;;;5.47;48.05
73103;BME280;61294;65.988;29.172;2022-10-23T09:49:02;96486.06;;;5.13;49.33
73103;BME280;61294;65.988;29.172;2022-10-23T09:51:29;96478.09;;;6.85;46.58
73103;BME280;61294;65.988;29.172;2022-10-23T09:53:56;96483.91;;;4.86;49.13
73103;BME280;61294;65.988;29.172;2022-10-23T09:56:26;96498.88;;;2.52;54.91
73103;BME280;61294;65.988;29.172;2022-10-23T09:58:55;96505.56;;;1.19;58.75
73103;BME280;61294;65.988;29.172;2022-10-23T10:01:27;96497.84;;;0.85;61.11
73103;BME280;61294;65.988;29.172;2022-10-23T10:03:53;96501.31;;;0.74;61.00
73103;BME280;61294;65.988;29.172;2022-10-23T10:06:25;96470.13;;;1.23;59.81
73103;BME280;61294;65.988;29.172;2022-10-23T10:09:18;96464.97;;;1.22;60.31
73103;BME280;61294;65.988;29.172;2022-10-23T10:14:55;96513.41;;;0.36;63.18
73103;BME280;61294;65.988;29.172;2022-10-23T10:22:39;96525.44;;;0.03;64.81
73103;BME280;61294;65.988;29.172;2022-10-23T10:25:20;96529.72;;;0.06;64.91
73103;BME280;61294;65.988;29.172;2022-10-23T10:28:06;96494.34;;;-0.12;65.09
73103;BME280;61294;65.988;29.172;2022-10-23T10:31:11;96511.66;;;0.18;64.30
73103;BME280;61294;65.988;29.172;2022-10-23T10:39:00;96487.50;;;0.62;61.04
73103;BME280;61294;65.988;29.172;2022-10-23T10:47:48;96509.84;;;1.48;59.57
73103;BME280;61294;65.988;29.172;2022-10-23T10:50:30;96509.75;;;1.73;57.85
73103;BME280;61294;65.988;29.172;2022-10-23T10:55:42;96497.88;;;0.53;60.79
73103;BME280;61294;65.988;29.172;2022-10-23T11:01:10;96509.06;;;0.23;62.16
73103;BME280;61294;65.988;29.172;2022-10-23T11:03:44;96532.38;;;0.18;62.33
73103;BME280;61294;65.988;29.172;2022-10-23T11:06:15;96524.59;;;0.13;62.58
73103;BME280;61294;65.988;29.172;2022-10-23T11:08:43;96503.88;;;0.15;62.42
73103;BME280;61294;65.988;29.172;2022-10-23T11:13:42;96517.69;;;1.30;59.91
73103;BME280;61294;65.988;29.172;2022-10-23T11:19:22;96512.00;;;2.35;57.27
73103;BME280;61294;65.988;29.172;2022-10-23T11:27:44;96503.66;;;1.82;57.51
73103;BME280;61294;65.988;29.172;2022-10-23T11:38:35;96539.31;;;0.82;58.30
73103;BME280;61294;65.988;29.172;2022-10-23T11:41:20;96541.03;;;0.48;59.94
73103;BME280;61294;65.988;29.172;2022-10-23T11:43:50;96524.63;;;0.27;60.13
73103;BME280;61294;65.988;29.172;2022-10-23T11:48:50;96555.66;;;0.15;62.05
73103;BME280;61294;65.988;29.172;2022-10-23T11:51:37;96540.13;;;0.10;60.94
73103;BME280;61294;65.988;29.172;2022-10-23T11:54:19;96544.41;;;0.04;61.73
73103;BME280;61294;65.988;29.172;2022-10-23T11:59:34;96549.59;;;-0.03;61.56
73103;BME280;61294;65.988;29.172;2022-10-23T12:04:54;96550.44;;;-0.07;62.34
73103;BME280;61294;65.988;29.172;2022-10-23T12:07:27;96534.00;;;-0.09;61.41
73103;BME280;61294;65.988;29.172;2022-10-23T12:10:16;96533.09;;;-0.22;62.62
73103;BME280;61294;65.988;29.172;2022-10-23T12:12:54;96550.38;;;-0.14;62.21
73103;BME280;61294;65.988;29.172;2022-10-23T12:15:21;96546.94;;;-0.15;61.58
73103;BME280;61294;65.988;29.172;2022-10-23T12:17:49;96546.94;;;-0.20;61.81
73103;BME280;61294;65.988;29.172;2022-10-23T12:20:17;96531.41;;;-0.24;61.77
73103;BME280;61294;65.988;29.172;2022-10-23T12:25:59;96546.88;;;-0.33;62.92
73103;BME280;61294;65.988;29.172;2022-10-23T12:39:39;96562.38;;;-0.38;62.68
73103;BME280;61294;65.988;29.172;2022-10-23T12:42:20;96559.78;;;-0.38;62.60
73103;BME280;61294;65.988;29.172;2022-10-23T12:45:13;96555.50;;;-0.31;62.16
73103;BME280;61294;65.988;29.172;2022-10-23T12:47:42;96538.13;;;-0.57;62.74
73103;BME280;61294;65.988;29.172;2022-10-23T12:50:26;96565.81;;;-0.42;62.20
73103;BME280;61294;65.988;29.172;2022-10-23T12:53:01;96556.28;;;-0.48;62.86
73103;BME280;61294;65.988;29.172;2022-10-23T12:55:53;96576.13;;;-0.48;63.20
73103;BME280;61294;65.988;29.172;2022-10-23T12:58:29;96570.06;;;-0.49;62.18
73103;BME280;61294;65.988;29.172;2022-10-23T13:00:58;96571.81;;;-0.49;62.95
73103;BME280;61294;65.988;29.172;2022-10-23T13:03:25;96563.97;;;-0.57;63.21
73103;BME280;61294;65.988;29.172;2022-10-23T13:05:53;96560.53;;;-0.64;63.41
73103;BME280;61294;65.988;29.172;2022-10-23T13:08:21;96557.03;;;-0.67;63.22
73103;BME280;61294;65.988;29.172;2022-10-23T13:10:48;96569.16;;;-0.59;63.09
73103;BME280;61294;65.988;29.172;2022-10-23T13:13:20;96557.03;;;-0.69;63.96
73103;BME280;61294;65.988;29.172;2022-10-23T13:15:48;96575.16;;;-0.63;63.63
73103;BME280;61294;65.988;29.172;2022-10-23T13:18:15;96557.88;;;-0.70;63.51
73103;BME280;61294;65.988;29.172;2022-10-23T13:20:59;96580.31;;;-0.66;63.59
73103;BME280;61294;65.988;29.172;2022-10-23T13:23:30;96561.22;;;-0.88;63.85
73103;BME280;61294;65.988;29.172;2022-10-23T13:25:59;96592.31;;;-0.76;64.04
73103;BME280;61294;65.988;29.172;2022-10-23T13:28:43;96570.66;;;-0.96;64.54
73103;BME280;61294;65.988;29.172;2022-10-23T13:33:37;96587.91;;;-0.95;64.79
73103;BME280;61294;65.988;29.172;2022-10-23T13:36:22;96595.66;;;-0.95;64.66
73103;BME280;61294;65.988;29.172;2022-10-23T13:41:45;96622.34;;;-0.93;64.76
73103;BME280;61294;65.988;29.172;2022-10-23T13:44:14;96618.97;;;-0.84;64.40
73103;BME280;61294;65.988;29.172;2022-10-23T13:46:41;96623.38;;;-0.73;64.03
73103;BME280;61294;65.988;29.172;2022-10-23T13:49:07;96623.34;;;-0.76;63.81
73103;BME280;61294;65.988;29.172;2022-10-23T13:51:46;96623.28;;;-0.85;64.30
73103;BME280;61294;65.988;29.172;2022-10-23T13:54:20;96608.63;;;-0.88;64.19
73103;BME280;61294;65.988;29.172;2022-10-23T13:56:46;96623.28;;;-0.88;64.57
73103;BME280;61294;65.988;29.172;2022-10-23T13:59:13;96593.81;;;-1.09;64.68
73103;BME280;61294;65.988;29.172;2022-10-23T14:01:40;96619.81;;;-0.89;64.69
73103;BME280;61294;65.988;29.172;2022-10-23T14:04:07;96621.63;;;-0.78;64.71
73103;BME280;61294;65.988;29.172;2022-10-23T14:06:34;96588.75;;;-0.93;64.42
73103;BME280;61294;65.988;29.172;2022-10-23T14:09:03;96624.25;;;-0.72;63.75
73103;BME280;61294;65.988;29.172;2022-10-23T14:11:29;96625.97;;;-0.73;63.81
73103;BME280;61294;65.988;29.172;2022-10-23T14:13:56;96634.59;;;-0.72;63.90
73103;BME280;61294;65.988;29.172;2022-10-23T14:16:24;96592.16;;;-0.97;64.33
73103;BME280;61294;65.988;29.172;2022-10-23T14:18:50;96606.03;;;-0.88;63.84
73103;BME280;61294;65.988;29.172;2022-10-23T14:21:17;96636.28;;;-0.74;63.94
73103;BME280;61294;65.988;29.172;2022-10-23T14:23:45;96635.44;;;-0.72;63.87
73103;BME280;61294;65.988;29.172;2022-10-23T14:26:13;96645.78;;;-0.70;63.63
73103;BME280;61294;65.988;29.172;2022-10-23T14:28:40;96615.53;;;-0.87;63.92
73103;BME280;61294;65.988;29.172;2022-10-23T14:31:08;96638.81;;;-0.80;63.54
73103;BME280;61294;65.988;29.172;2022-10-23T14:33:34;96640.59;;;-0.75;63.74
73103;BME280;61294;65.988;29.172;2022-10-23T14:36:00;96624.16;;;-0.80;63.75
73103;BME280;61294;65.988;29.172;2022-10-23T14:38:26;96644.09;;;-0.70;63.53
73103;BME280;61294;65.988;29.172;2022-10-23T14:40:52;96636.25;;;-0.79;63.10
73103;BME280;61294;65.988;29.172;2022-10-23T14:43:18;96620.72;;;-0.82;63.45
73103;BME280;61294;65.988;29.172;2022-10-23T14:45:44;96607.78;;;-0.87;63.51
73103;BME280;61294;65.988;29.172;2022-10-23T14:48:10;96618.16;;;-0.79;62.71
73103;BME280;61294;65.988;29.172;2022-10-23T14:50:42;96651.06;;;-0.59;62.41
73103;BME280;61294;65.988;29.172;2022-10-23T14:53:08;96650.13;;;-0.64;62.88